Kershaw, South Carolina
Current Conditions -  °F | °C
As of 12:15 PM on Monday 22 Dec 2014 (Local Time) from KCDN Reporting Station
Haze Haze  
Wind Chill: 35°   Ceiling: 300
Heat Index: 41°   Visibility: 1mi
Dew Point: 41°   Wind: 9mph
Humidity: 100%   Direction: 50°NE
Pressure: 30.07"   Gusts: NA
Location:  34.55°N, 80.58°W
Report Text: KCDN 221715Z AUTO 05008KT 1SM BR OVC003 05/05 A3007 RMK AO2 TSNO
Loading
Personal Weather Stations






























Interactive Weather Map New forecast layout! Learn more

10-Day Weather Forecast

Advertisements
Track Severe Weather on mobile